createdAt,value
2018-09-03T00:00:28.538Z,56.23
2018-09-03T00:02:58.477Z,56.12
2018-09-03T00:05:27.471Z,56.18
2018-09-03T00:07:56.465Z,56.02
2018-09-03T00:10:25.475Z,56.56
2018-09-03T00:12:54.473Z,56.33
2018-09-03T00:15:23.594Z,56.79
2018-09-03T00:17:52.688Z,56.62
2018-09-03T00:20:21.744Z,57.18
2018-09-03T00:22:50.738Z,57.30
2018-09-03T00:25:19.746Z,57.57
2018-09-03T00:27:48.761Z,57.51
2018-09-03T00:30:17.802Z,57.34
2018-09-03T00:32:52.004Z,57.54
2018-09-03T00:35:26.105Z,57.59
2018-09-03T00:38:00.033Z,57.55
2018-09-03T00:40:34.288Z,57.00
2018-09-03T00:43:08.461Z,57.40
2018-09-03T00:45:42.453Z,57.47
2018-09-03T00:48:11.516Z,57.56
2018-09-03T00:50:40.516Z,57.92
2018-09-03T00:53:09.608Z,57.79
2018-09-03T00:55:38.709Z,58.04
2018-09-03T00:58:07.776Z,58.03
2018-09-03T01:00:36.808Z,58.08
2018-09-03T01:03:06.144Z,58.25
2018-09-03T01:05:35.145Z,58.13
2018-09-03T01:08:04.171Z,57.92
2018-09-03T01:10:33.152Z,58.46
2018-09-03T01:13:02.178Z,58.05
2018-09-03T01:15:31.612Z,57.89
2018-09-03T01:18:02.111Z,57.97
2018-09-03T01:20:31.800Z,57.74
2018-09-03T01:23:02.064Z,58.05
2018-09-03T01:25:31.143Z,58.18
2018-09-03T01:28:00.400Z,58.38
2018-09-03T01:30:29.391Z,58.12
2018-09-03T01:32:58.449Z,58.02
2018-09-03T01:35:27.591Z,58.08
2018-09-03T01:37:56.596Z,58.35
2018-09-03T01:40:25.646Z,58.37
2018-09-03T01:42:54.702Z,58.69
2018-09-03T01:45:23.726Z,58.67
2018-09-03T01:47:53.949Z,58.61
2018-09-03T01:50:22.939Z,58.64
2018-09-03T01:52:51.934Z,58.84
2018-09-03T01:55:20.923Z,58.70
2018-09-03T01:57:49.955Z,58.88
2018-09-03T02:00:19.011Z,59.11
2018-09-03T02:02:48.041Z,59.23
2018-09-03T02:05:17.058Z,59.01
2018-09-03T02:07:46.119Z,59.27
2018-09-03T02:10:15.216Z,59.39
2018-09-03T02:12:44.249Z,59.37
2018-09-03T02:15:13.299Z,59.10
2018-09-03T02:17:42.434Z,59.71
2018-09-03T02:20:11.569Z,59.29
2018-09-03T02:22:40.696Z,59.37
2018-09-03T02:25:09.723Z,59.53
2018-09-03T02:27:38.926Z,59.57
2018-09-03T02:30:08.142Z,60.06
2018-09-03T02:32:37.130Z,59.94
2018-09-03T02:35:06.255Z,60.97
2018-09-03T02:37:36.062Z,61.26
2018-09-03T02:40:05.220Z,61.41
2018-09-03T02:42:35.328Z,61.53
2018-09-03T02:45:04.520Z,61.71
2018-09-03T02:47:33.565Z,61.72
2018-09-03T02:50:02.593Z,61.67
2018-09-03T02:52:32.962Z,61.77
2018-09-03T02:55:02.006Z,61.89
2018-09-03T02:57:31.299Z,61.99
2018-09-03T03:00:00.315Z,61.96
2018-09-03T03:02:29.420Z,62.01
2018-09-03T03:04:58.519Z,61.90
2018-09-03T03:07:27.532Z,62.21
2018-09-03T03:09:56.542Z,62.21
2018-09-03T03:12:26.259Z,62.20
2018-09-03T03:14:57.393Z,62.28
2018-09-03T03:17:26.573Z,62.27
2018-09-03T03:19:56.699Z,62.26
2018-09-03T03:22:26.072Z,62.26
2018-09-03T03:24:55.167Z,62.42
2018-09-03T03:27:24.205Z,62.31
2018-09-03T03:29:53.261Z,62.31
2018-09-03T03:32:22.428Z,62.55
2018-09-03T03:34:52.369Z,62.63
2018-09-03T03:37:21.440Z,62.53
2018-09-03T03:39:50.516Z,62.59
2018-09-03T03:42:19.563Z,62.79
2018-09-03T03:44:48.603Z,62.71
2018-09-03T03:47:17.617Z,62.74
2018-09-03T03:49:46.696Z,62.86
2018-09-03T03:52:15.685Z,62.83
2018-09-03T03:54:44.679Z,62.83
2018-09-03T03:57:13.660Z,62.65
2018-09-03T03:59:42.801Z,62.73
2018-09-03T04:02:11.969Z,62.81
2018-09-03T04:04:40.981Z,63.06
2018-09-03T04:07:10.398Z,63.17
2018-09-03T04:09:40.011Z,63.23
2018-09-03T04:12:09.021Z,63.21
2018-09-03T04:14:38.015Z,63.21
2018-09-03T04:17:07.007Z,63.27
2018-09-03T04:19:36.105Z,63.08
2018-09-03T04:22:05.755Z,62.89
2018-09-03T04:24:34.753Z,62.84
2018-09-03T04:27:03.925Z,62.69
2018-09-03T04:29:33.124Z,62.91
2018-09-03T04:32:02.866Z,63.30
2018-09-03T04:34:31.865Z,63.30
2018-09-03T04:37:00.863Z,63.56
2018-09-03T04:39:29.923Z,63.88
2018-09-03T04:41:59.018Z,63.92
2018-09-03T04:44:28.255Z,64.08
2018-09-03T04:46:57.241Z,64.46
2018-09-03T04:49:26.255Z,64.79
2018-09-03T04:51:55.243Z,64.71
2018-09-03T04:54:24.288Z,64.60
2018-09-03T04:56:53.339Z,64.37
2018-09-03T04:59:22.425Z,64.12
2018-09-03T05:01:51.391Z,64.04
2018-09-03T05:04:20.394Z,64.19
2018-09-03T05:06:49.466Z,64.39
2018-09-03T05:09:18.537Z,64.24
2018-09-03T05:11:47.853Z,64.35
2018-09-03T05:14:17.040Z,64.20
2018-09-03T05:16:46.132Z,64.33
2018-09-03T05:19:15.132Z,64.31
2018-09-03T05:21:44.134Z,64.28
2018-09-03T05:24:13.220Z,64.17
2018-09-03T05:26:42.419Z,64.18
2018-09-03T05:29:11.429Z,64.15
2018-09-03T05:31:40.423Z,64.37
2018-09-03T05:34:09.437Z,64.45
2018-09-03T05:36:38.838Z,64.41
2018-09-03T05:39:11.180Z,64.31
2018-09-03T05:41:40.907Z,64.25
2018-09-03T05:44:10.649Z,64.24
2018-09-03T05:46:40.040Z,64.40
2018-09-03T05:49:09.208Z,64.61
2018-09-03T05:51:38.919Z,64.59
2018-09-03T05:54:08.034Z,64.52
2018-09-03T05:56:37.259Z,64.61
2018-09-03T05:59:06.743Z,64.62
2018-09-03T06:01:36.394Z,64.61
2018-09-03T06:04:05.697Z,64.67
2018-09-03T06:06:34.756Z,64.84
2018-09-03T06:09:05.039Z,64.66
2018-09-03T06:11:34.069Z,64.65
2018-09-03T06:14:05.179Z,64.87
2018-09-03T06:16:34.309Z,65.01
2018-09-03T06:19:03.408Z,64.81
2018-09-03T06:21:32.439Z,64.88
2018-09-03T06:24:01.807Z,64.97
2018-09-03T06:26:30.830Z,65.00
2018-09-03T06:28:59.808Z,64.83
2018-09-03T06:31:28.927Z,64.82
2018-09-03T06:33:57.943Z,65.11
2018-09-03T06:36:27.043Z,64.91
2018-09-03T06:38:56.189Z,64.80
2018-09-03T06:41:25.232Z,64.52
2018-09-03T06:43:54.484Z,64.71
2018-09-03T06:46:23.519Z,64.53
2018-09-03T06:48:52.533Z,64.57
2018-09-03T06:51:21.699Z,64.47
2018-09-03T06:53:50.804Z,64.29
2018-09-03T06:56:19.798Z,64.23
2018-09-03T06:58:48.852Z,64.00
2018-09-03T07:01:17.978Z,63.85
2018-09-03T07:03:47.190Z,63.77
2018-09-03T07:06:16.209Z,63.73
2018-09-03T07:08:45.821Z,63.79
2018-09-03T07:11:14.863Z,63.67
2018-09-03T07:13:47.097Z,63.37
2018-09-03T07:16:16.202Z,63.50
2018-09-03T07:18:45.612Z,63.53
2018-09-03T07:21:14.609Z,63.56
2018-09-03T07:23:43.662Z,63.49
2018-09-03T07:26:12.793Z,63.49
2018-09-03T07:28:41.874Z,63.42
2018-09-03T07:31:10.958Z,63.45
2018-09-03T07:33:40.016Z,63.31
2018-09-03T07:36:09.230Z,63.40
2018-09-03T07:38:38.370Z,63.53
2018-09-03T07:41:07.537Z,63.01
2018-09-03T07:43:36.672Z,63.35
2018-09-03T07:46:06.968Z,63.21
2018-09-03T07:48:36.004Z,63.21
2018-09-03T07:51:05.052Z,63.11
2018-09-03T07:53:35.023Z,63.21
2018-09-03T07:56:04.221Z,63.15
2018-09-03T07:58:33.313Z,62.84
2018-09-03T08:01:02.469Z,62.83
2018-09-03T08:03:31.543Z,62.89
2018-09-03T08:06:00.632Z,63.07
2018-09-03T08:08:30.718Z,62.88
2018-09-03T08:10:59.818Z,62.69
2018-09-03T08:13:33.848Z,62.72
2018-09-03T08:16:02.965Z,62.51
2018-09-03T08:18:40.767Z,62.49
2018-09-03T08:21:10.035Z,62.09
2018-09-03T08:23:39.288Z,61.73
2018-09-03T08:26:08.356Z,61.36
2018-09-03T08:28:37.481Z,61.35
2018-09-03T08:31:07.063Z,60.93
2018-09-03T08:33:36.171Z,60.52
2018-09-03T08:36:05.292Z,60.60
2018-09-03T08:38:34.385Z,60.79
2018-09-03T08:41:03.592Z,60.89
2018-09-03T08:43:32.742Z,61.00
2018-09-03T08:46:08.238Z,60.70
2018-09-03T08:48:38.521Z,60.99
2018-09-03T08:51:07.814Z,60.63
2018-09-03T08:53:37.025Z,60.60
2018-09-03T08:56:06.334Z,61.00
2018-09-03T08:58:35.826Z,60.94
2018-09-03T09:01:05.987Z,60.88
2018-09-03T09:03:42.370Z,60.63
2018-09-03T09:06:14.493Z,60.68
2018-09-03T09:08:43.654Z,60.86
2018-09-03T09:11:13.852Z,60.95
2018-09-03T09:13:42.974Z,60.97
2018-09-03T09:16:12.249Z,60.63
2018-09-03T09:18:41.386Z,60.61
2018-09-03T09:21:10.643Z,60.58
2018-09-03T09:23:40.143Z,60.93
2018-09-03T09:26:09.335Z,60.71
2018-09-03T09:28:38.502Z,60.90
2018-09-03T09:31:07.594Z,60.69
2018-09-03T09:33:36.732Z,60.67
2018-09-03T09:36:05.948Z,60.75
2018-09-03T09:38:35.141Z,60.66
2018-09-03T09:41:04.340Z,61.07
2018-09-03T09:43:33.457Z,60.63
2018-09-03T09:46:02.546Z,60.68
2018-09-03T09:48:31.643Z,61.26
2018-09-03T09:51:00.670Z,61.11
2018-09-03T09:53:31.328Z,61.40
2018-09-03T09:56:00.381Z,61.90
2018-09-03T09:58:30.696Z,61.99
2018-09-03T10:01:06.033Z,62.17
2018-09-03T10:03:36.386Z,62.47
2018-09-03T10:06:05.720Z,62.67
2018-09-03T10:08:34.743Z,63.03
2018-09-03T10:11:04.732Z,63.51
2018-09-03T10:13:33.871Z,63.25
2018-09-03T10:16:03.130Z,63.83
2018-09-03T10:18:32.238Z,64.14
2018-09-03T10:21:01.401Z,64.24
2018-09-03T10:23:31.017Z,64.52
2018-09-03T10:26:00.287Z,65.10
2018-09-03T10:28:29.485Z,65.17
2018-09-03T10:30:58.532Z,65.44
2018-09-03T10:33:27.632Z,65.94
2018-09-03T10:35:56.824Z,65.64
2018-09-03T10:38:25.894Z,65.79
2018-09-03T10:40:55.771Z,65.83
2018-09-03T10:43:25.118Z,66.09
2018-09-03T10:45:54.329Z,66.18
2018-09-03T10:48:23.397Z,66.39
2018-09-03T10:50:53.051Z,66.47
2018-09-03T10:53:22.171Z,67.06
2018-09-03T10:55:54.500Z,67.34
2018-09-03T11:01:17.277Z,68.12
2018-09-03T11:03:47.216Z,68.12
2018-09-03T11:06:16.288Z,68.61
2018-09-03T11:08:49.768Z,68.74
2018-09-03T11:11:32.667Z,68.70
2018-09-03T11:14:02.427Z,69.26
2018-09-03T11:19:22.190Z,69.45
2018-09-03T11:21:51.332Z,69.47
2018-09-03T11:24:20.487Z,70.34
2018-09-03T11:27:00.677Z,70.81
2018-09-03T11:29:30.845Z,71.05
2018-09-03T11:32:00.105Z,71.04
2018-09-03T11:34:34.434Z,70.77
2018-09-03T11:37:04.411Z,71.20
2018-09-03T11:39:33.508Z,71.37
2018-09-03T11:42:03.049Z,71.52
2018-09-03T11:44:32.984Z,71.22
2018-09-03T11:47:03.231Z,71.68
2018-09-03T11:49:32.731Z,71.19
2018-09-03T11:52:02.736Z,71.12
2018-09-03T11:54:32.122Z,70.83
2018-09-03T11:57:02.250Z,70.88
2018-09-03T11:59:31.349Z,70.39
2018-09-03T12:02:00.702Z,70.83
2018-09-03T12:04:30.125Z,70.09
2018-09-03T12:06:59.350Z,69.99
2018-09-03T12:09:28.472Z,70.08
2018-09-03T12:11:57.650Z,70.52
2018-09-03T12:14:31.686Z,70.09
2018-09-03T12:17:02.326Z,70.30
2018-09-03T12:19:31.453Z,70.76
2018-09-03T12:22:02.172Z,70.26
2018-09-03T12:24:31.231Z,69.91
2018-09-03T12:27:04.717Z,70.03
2018-09-03T12:29:34.035Z,70.37
2018-09-03T12:32:03.109Z,69.87
2018-09-03T12:34:32.236Z,69.88
2018-09-03T12:37:01.468Z,69.98
2018-09-03T12:39:32.088Z,69.92
2018-09-03T12:42:01.215Z,69.95
2018-09-03T12:44:30.437Z,69.87
2018-09-03T12:47:00.292Z,69.73
2018-09-03T12:49:37.362Z,69.85
2018-09-03T12:52:06.564Z,69.23
2018-09-03T12:54:35.600Z,68.98
2018-09-03T12:59:49.134Z,68.43
2018-09-03T13:02:18.198Z,68.52
2018-09-03T13:04:47.487Z,68.64
2018-09-03T13:07:17.177Z,68.66
2018-09-03T13:09:46.265Z,68.43
2018-09-03T13:12:15.516Z,68.43
2018-09-03T13:14:45.013Z,68.49
2018-09-03T13:17:14.323Z,68.40
2018-09-03T13:19:44.742Z,68.31
2018-09-03T13:22:13.905Z,68.21
2018-09-03T13:24:43.083Z,68.13
2018-09-03T13:27:12.501Z,67.83
2018-09-03T13:29:42.262Z,67.56
2018-09-03T13:32:12.893Z,66.87
2018-09-03T13:34:42.125Z,66.77
2018-09-03T13:37:12.332Z,66.32
2018-09-03T13:39:41.540Z,66.09
2018-09-03T13:42:16.136Z,65.80
2018-09-03T13:44:45.736Z,65.45
2018-09-03T13:47:15.097Z,65.38
2018-09-03T13:49:44.351Z,65.96
2018-09-03T13:52:30.739Z,65.99
2018-09-03T13:55:02.109Z,66.50
2018-09-03T14:00:42.742Z,65.96
2018-09-03T14:03:23.435Z,65.39
2018-09-03T14:06:02.233Z,65.75
2018-09-03T14:14:32.142Z,64.86
2018-09-03T14:20:25.263Z,64.47
2018-09-03T14:37:03.565Z,63.50
2018-09-03T14:39:35.308Z,63.65
2018-09-03T14:44:58.367Z,63.00
2018-09-03T14:47:27.378Z,62.50
2018-09-03T14:49:56.872Z,62.59
2018-09-03T14:52:27.263Z,62.61
2018-09-03T14:55:14.289Z,62.29
2018-09-03T14:57:43.549Z,62.38
2018-09-03T15:00:13.599Z,62.47
2018-09-03T15:02:42.625Z,62.20
2018-09-03T15:05:11.639Z,62.15
2018-09-03T15:07:40.724Z,62.29
2018-09-03T15:10:09.864Z,61.91
2018-09-03T15:12:39.534Z,62.05
2018-09-03T15:15:08.651Z,61.83
2018-09-03T15:17:40.302Z,62.07
2018-09-03T15:20:37.719Z,61.52
2018-09-03T15:26:25.562Z,61.74
2018-09-03T15:28:54.999Z,61.95
2018-09-03T15:31:24.013Z,62.06
2018-09-03T15:33:53.319Z,61.85
2018-09-03T15:36:23.638Z,61.56
2018-09-03T15:38:53.095Z,61.81
2018-09-03T15:41:22.123Z,61.66
2018-09-03T15:43:51.208Z,61.95
2018-09-03T15:46:20.424Z,62.11
2018-09-03T15:48:49.576Z,61.64
2018-09-03T15:51:18.695Z,61.38
2018-09-03T15:53:48.220Z,61.54
2018-09-03T15:56:17.333Z,61.29
2018-09-03T15:58:46.493Z,61.41
2018-09-03T16:01:15.755Z,61.10
2018-09-03T16:03:45.034Z,61.27
2018-09-03T16:06:14.220Z,61.35
2018-09-03T16:08:46.016Z,61.19
2018-09-03T16:11:15.256Z,61.17
2018-09-03T16:13:44.475Z,61.26
2018-09-03T16:16:13.665Z,61.05
2018-09-03T16:18:58.537Z,60.66
2018-09-03T16:21:28.177Z,60.61
2018-09-03T16:23:57.165Z,60.24
2018-09-03T16:26:26.200Z,60.15
2018-09-03T16:28:55.272Z,59.97
2018-09-03T16:31:24.377Z,60.22
2018-09-03T16:33:53.661Z,59.70
2018-09-03T16:36:22.686Z,59.67
2018-09-03T16:38:52.043Z,59.74
2018-09-03T16:41:21.164Z,60.01
2018-09-03T16:43:50.222Z,59.82
2018-09-03T16:46:19.243Z,59.84
2018-09-03T16:48:48.396Z,59.71
2018-09-03T16:51:17.535Z,59.51
2018-09-03T16:53:46.571Z,59.26
2018-09-03T16:56:15.589Z,59.63
2018-09-03T16:58:44.634Z,59.45
2018-09-03T17:01:14.486Z,59.98
2018-09-03T17:03:44.431Z,59.93
2018-09-03T17:06:13.690Z,60.08
2018-09-03T17:08:43.156Z,59.83
2018-09-03T17:11:12.209Z,59.94
2018-09-03T17:13:41.385Z,60.04
2018-09-03T17:16:10.569Z,59.98
2018-09-03T17:18:40.302Z,60.10
2018-09-03T17:21:09.329Z,60.38
2018-09-03T17:23:38.456Z,60.41
2018-09-03T17:26:07.428Z,60.63
2018-09-03T17:28:36.917Z,60.35
2018-09-03T17:31:05.923Z,60.20
2018-09-03T17:33:35.122Z,60.19
2018-09-03T17:36:05.052Z,60.36
2018-09-03T17:38:34.111Z,60.11
2018-09-03T17:41:03.124Z,60.16
2018-09-03T17:43:32.220Z,60.22
2018-09-03T17:46:01.281Z,59.96
2018-09-03T17:48:30.475Z,60.19
2018-09-03T17:50:59.955Z,60.00
2018-09-03T17:53:29.524Z,59.82
2018-09-03T17:56:58.638Z,59.85
2018-09-03T18:02:19.760Z,59.74
2018-09-03T18:04:48.808Z,59.87
2018-09-03T18:07:18.876Z,59.91
2018-09-03T18:09:48.140Z,60.14
2018-09-03T18:12:17.158Z,60.14
2018-09-03T18:14:46.262Z,60.11
2018-09-03T18:17:15.381Z,59.99
2018-09-03T18:19:44.401Z,60.04
2018-09-03T18:22:13.423Z,60.05
2018-09-03T18:24:42.416Z,59.94
2018-09-03T18:27:12.492Z,59.95
2018-09-03T18:29:41.636Z,59.75
2018-09-03T18:32:10.668Z,59.85
2018-09-03T18:34:40.050Z,59.86
2018-09-03T18:37:10.611Z,59.84
2018-09-03T18:39:40.050Z,59.86
2018-09-03T18:42:08.637Z,59.75
2018-09-03T18:44:38.622Z,59.59
2018-09-03T18:47:08.786Z,59.60
2018-09-03T18:49:38.381Z,59.73
2018-09-03T18:52:07.440Z,59.69
2018-09-03T18:54:37.228Z,59.75
2018-09-03T18:57:06.440Z,59.76
2018-09-03T18:59:35.526Z,59.75
2018-09-03T19:02:04.687Z,59.50
2018-09-03T19:04:33.787Z,59.81
2018-09-03T19:07:02.900Z,59.93
2018-09-03T19:09:31.907Z,59.96
2018-09-03T19:12:01.382Z,59.89
2018-09-03T19:14:30.410Z,59.73
2018-09-03T19:16:59.419Z,59.80
2018-09-03T19:19:28.799Z,59.80
2018-09-03T19:21:57.880Z,59.61
2018-09-03T19:24:27.006Z,59.59
2018-09-03T19:26:56.621Z,59.86
2018-09-03T19:29:25.644Z,59.61
2018-09-03T19:31:55.762Z,59.61
2018-09-03T19:34:24.801Z,59.45
2018-09-03T19:36:54.179Z,59.64
2018-09-03T19:39:23.210Z,59.81
2018-09-03T19:41:52.202Z,59.65
2018-09-03T19:44:21.198Z,59.96
2018-09-03T19:46:51.076Z,59.73
2018-09-03T19:49:26.637Z,59.77
2018-09-03T19:51:55.797Z,59.66
2018-09-03T19:54:24.819Z,59.96
2018-09-03T19:56:58.920Z,59.90
2018-09-03T19:59:27.982Z,60.09
2018-09-03T20:01:57.060Z,60.37
2018-09-03T20:04:26.085Z,60.79
2018-09-03T20:06:55.091Z,60.92
2018-09-03T20:09:24.083Z,61.57
2018-09-03T20:11:53.196Z,61.73
2018-09-03T20:14:22.421Z,61.70
2018-09-03T20:16:52.300Z,61.94
2018-09-03T20:19:21.533Z,62.32
2018-09-03T20:21:50.844Z,62.47
2018-09-03T20:24:20.876Z,62.67
2018-09-03T20:26:49.911Z,63.05
2018-09-03T20:29:20.581Z,63.34
2018-09-03T20:31:49.927Z,63.51
2018-09-03T20:34:18.944Z,63.62
2018-09-03T20:36:48.007Z,63.80
2018-09-03T20:39:17.090Z,63.71
2018-09-03T20:41:46.210Z,63.62
2018-09-03T20:44:15.344Z,63.56
2018-09-03T20:46:44.420Z,63.76
2018-09-03T20:49:13.515Z,63.68
2018-09-03T20:51:42.719Z,63.73
2018-09-03T20:54:11.784Z,63.43
2018-09-03T20:56:40.881Z,63.43
2018-09-03T20:59:09.981Z,63.47
2018-09-03T21:01:39.203Z,63.19
2018-09-03T21:04:08.536Z,62.88
2018-09-03T21:06:37.643Z,62.73
2018-09-03T21:09:08.125Z,62.69
2018-09-03T21:11:37.253Z,62.74
2018-09-03T21:14:07.230Z,62.66
2018-09-03T21:16:36.718Z,62.97
2018-09-03T21:19:05.969Z,63.13
2018-09-03T21:21:35.880Z,63.28
2018-09-03T21:24:04.897Z,63.72
2018-09-03T21:26:34.667Z,64.04
2018-09-03T21:29:03.726Z,64.41
2018-09-03T21:31:32.787Z,64.62
2018-09-03T21:34:01.850Z,64.67
2018-09-03T21:36:30.850Z,64.68
2018-09-03T21:39:01.735Z,64.67
2018-09-03T21:41:30.874Z,64.70
2018-09-03T21:43:59.980Z,64.80
2018-09-03T21:46:29.091Z,64.89
2018-09-03T21:48:58.105Z,65.13
2018-09-03T21:51:27.139Z,65.18
2018-09-03T21:53:56.148Z,65.45
2018-09-03T21:56:25.171Z,65.61
2018-09-03T21:58:54.188Z,65.71
2018-09-03T22:01:23.538Z,66.00
2018-09-03T22:03:52.587Z,65.88
2018-09-03T22:06:21.563Z,65.98
2018-09-03T22:08:50.500Z,66.08
2018-09-03T22:11:19.541Z,65.97
2018-09-03T22:13:49.392Z,66.35
2018-09-03T22:16:18.392Z,66.47
2018-09-03T22:19:03.001Z,66.19
2018-09-03T22:21:52.255Z,66.29
2018-09-03T22:24:36.033Z,66.38
2018-09-03T22:27:08.763Z,66.34
2018-09-03T22:29:40.835Z,66.16
2018-09-03T22:32:20.539Z,66.25
2018-09-03T22:35:04.098Z,66.26
2018-09-03T22:37:49.686Z,66.17
2018-09-03T22:40:18.812Z,65.90
2018-09-03T22:43:03.201Z,65.80
2018-09-03T22:45:32.414Z,65.79
2018-09-03T22:48:13.905Z,65.67
2018-09-03T22:50:59.585Z,65.81
2018-09-03T22:53:44.972Z,65.69
2018-09-03T22:56:14.290Z,65.66
2018-09-03T22:58:44.008Z,65.56
2018-09-03T23:01:26.405Z,65.63
2018-09-03T23:04:13.128Z,65.59
2018-09-03T23:06:59.342Z,65.65
2018-09-03T23:09:29.043Z,65.55
2018-09-03T23:12:07.936Z,65.73
2018-09-03T23:14:53.406Z,65.72
2018-09-03T23:17:22.386Z,65.83
2018-09-03T23:19:51.525Z,65.89
2018-09-03T23:22:20.568Z,65.98
2018-09-03T23:24:49.644Z,66.12
2018-09-03T23:27:18.668Z,66.23
2018-09-03T23:29:47.665Z,66.48
2018-09-03T23:32:16.697Z,66.32
2018-09-03T23:34:45.697Z,66.72
2018-09-03T23:37:14.696Z,66.71
2018-09-03T23:39:43.693Z,66.58
2018-09-03T23:42:12.756Z,66.91
2018-09-03T23:44:41.800Z,66.90
2018-09-03T23:47:11.101Z,67.09
2018-09-03T23:49:40.771Z,67.11
2018-09-03T23:52:09.840Z,67.38
2018-09-03T23:54:38.995Z,67.49
2018-09-03T23:57:08.048Z,67.66
2018-09-03T23:59:37.692Z,67.64
